Time;durP1;ratioP1;P1;durP2;ratioP2;P2;SDS_P1;SDS_P2;PMS_P1;PMS_P2;Temp;Humidity;BMP_temperature;BMP_pressure;BME280_temperature;BME280_humidity;BME280_pressure;Samples;Min_cycle;Max_cycle;Signal;HPM_P1;HPM_P2
2023/04/28 00:00:04;;;;;;;80.85;73.70;;;8.10;1.00;;;;;;5027616;28;20095;-67
2023/04/28 00:02:30;;;;;;;83.25;76.82;;;8.10;1.00;;;;;;5011603;28;20040;-66
2023/04/28 00:04:56;;;;;;;78.80;73.05;;;8.00;1.00;;;;;;5016355;28;20117;-67
2023/04/28 00:07:22;;;;;;;91.03;84.32;;;8.10;1.00;;;;;;5028602;28;20053;-67
2023/04/28 00:09:48;;;;;;;92.13;85.43;;;8.10;1.00;;;;;;5029480;28;20041;-67
2023/04/28 00:12:13;;;;;;;96.07;88.68;;;8.00;1.00;;;;;;5015993;28;20052;-67
2023/04/28 00:14:39;;;;;;;103.78;94.88;;;8.00;1.00;;;;;;5010509;28;20038;-67
2023/04/28 00:17:05;;;;;;;152.75;141.43;;;7.90;99.90;;;;;;5017814;28;20048;-67
2023/04/28 00:19:31;;;;;;;91.65;84.75;;;7.90;99.90;;;;;;5017264;28;20042;-67
2023/04/28 00:21:56;;;;;;;96.75;89.03;;;7.80;99.90;;;;;;5028419;28;20037;-67
2023/04/28 00:24:22;;;;;;;134.25;124.55;;;7.80;99.90;;;;;;5030181;28;20091;-66
2023/04/28 00:26:47;;;;;;;94.30;86.93;;;7.90;99.90;;;;;;5025632;28;20069;-67
2023/04/28 00:29:13;;;;;;;94.18;86.30;;;7.90;99.90;;;;;;5030070;28;20522;-67
2023/04/28 00:31:39;;;;;;;97.32;89.25;;;7.90;99.90;;;;;;5027986;28;20487;-66
2023/04/28 00:34:04;;;;;;;88.18;81.63;;;7.90;99.90;;;;;;5026260;28;20057;-66
2023/04/28 00:36:32;;;;;;;97.80;90.32;;;7.90;99.90;;;;;;5025680;28;20423;-67
2023/04/28 00:38:58;;;;;;;86.70;80.43;;;7.90;99.90;;;;;;5028358;28;20406;-67
2023/04/28 00:41:23;;;;;;;147.77;138.18;;;7.90;99.90;;;;;;5025029;28;20082;-67
2023/04/28 00:43:49;;;;;;;153.80;143.02;;;7.90;99.90;;;;;;4992744;28;20104;-67
2023/04/28 00:46:25;;;;;;;182.57;170.27;;;7.90;71.30;;;;;;5024819;28;20148;-67
2023/04/28 00:48:51;;;;;;;197.00;182.07;;;7.90;44.40;;;;;;5029246;28;20083;-66
2023/04/28 00:51:17;;;;;;;149.32;139.05;;;7.80;12.80;;;;;;5029776;28;20438;-66
2023/04/28 00:53:43;;;;;;;116.03;107.40;;;7.80;1.00;;;;;;5015957;28;20030;-67
2023/04/28 00:56:09;;;;;;;115.97;107.50;;;7.70;1.00;;;;;;5013872;28;20419;-67
2023/04/28 00:58:34;;;;;;;99.32;91.50;;;7.70;1.00;;;;;;5029637;28;20103;-66
2023/04/28 01:01:07;;;;;;;101.47;93.43;;;7.80;1.00;;;;;;5023835;28;20491;-67
2023/04/28 01:03:36;;;;;;;98.72;91.75;;;7.90;1.00;;;;;;5023423;28;20037;-66
2023/04/28 01:06:06;;;;;;;104.78;96.55;;;7.80;1.00;;;;;;5027478;28;20041;-67
2023/04/28 01:08:33;;;;;;;112.88;104.88;;;7.90;1.00;;;;;;5027312;28;20503;-67
2023/04/28 01:10:59;;;;;;;181.70;169.65;;;7.90;1.00;;;;;;5018804;28;20049;-67
2023/04/28 01:13:25;;;;;;;90.25;82.72;;;7.90;1.00;;;;;;5028145;28;20083;-67
2023/04/28 01:15:51;;;;;;;114.57;105.93;;;7.80;1.00;;;;;;5025461;28;20101;-67
2023/04/28 01:18:16;;;;;;;103.10;95.55;;;7.80;1.00;;;;;;5027668;28;20124;-67
2023/04/28 01:20:42;;;;;;;98.13;90.90;;;7.80;1.00;;;;;;5028295;28;20056;-67
2023/04/28 01:23:15;;;;;;;98.05;91.03;;;7.70;1.00;;;;;;5029104;28;20488;-66
2023/04/28 01:25:41;;;;;;;103.03;95.65;;;7.80;1.00;;;;;;5022272;28;20049;-66
2023/04/28 01:28:09;;;;;;;162.82;152.10;;;7.80;1.00;;;;;;5029114;28;20050;-66
2023/04/28 01:30:34;;;;;;;105.18;97.53;;;7.90;1.00;;;;;;5018086;28;20045;-66
2023/04/28 01:33:01;;;;;;;94.72;87.85;;;7.80;1.00;;;;;;5028659;28;20034;-67
2023/04/28 01:35:26;;;;;;;91.75;85.10;;;7.90;1.00;;;;;;5031298;28;20737;-66
2023/04/28 01:37:52;;;;;;;85.05;78.95;;;7.90;1.00;;;;;;5032705;28;20041;-66
2023/04/28 01:40:18;;;;;;;90.22;83.97;;;7.90;1.00;;;;;;5032673;28;20049;-66
2023/04/28 01:42:43;;;;;;;104.05;96.47;;;7.80;1.00;;;;;;5031338;28;20124;-66
2023/04/28 01:45:09;;;;;;;113.82;105.50;;;7.70;1.00;;;;;;5032933;28;20042;-67
2023/04/28 01:47:35;;;;;;;103.25;95.72;;;7.70;1.00;;;;;;5029770;28;20407;-67
2023/04/28 01:50:01;;;;;;;109.72;101.55;;;7.70;1.00;;;;;;5021327;28;20037;-66
2023/04/28 01:52:26;;;;;;;107.53;99.63;;;7.60;1.00;;;;;;5031355;28;20073;-66
2023/04/28 01:54:52;;;;;;;200.60;187.90;;;7.60;1.00;;;;;;5031578;28;20520;-66
2023/04/28 01:57:18;;;;;;;119.25;110.03;;;7.70;1.00;;;;;;5023936;28;20048;-66
2023/04/28 01:59:44;;;;;;;214.50;199.15;;;7.70;1.00;;;;;;5014228;28;20133;-66
2023/04/28 02:02:09;;;;;;;261.30;243.30;;;7.80;1.00;;;;;;5012106;28;20045;-66
2023/04/28 02:04:37;;;;;;;100.97;93.72;;;7.80;1.00;;;;;;5015299;28;20125;-66
2023/04/28 02:07:02;;;;;;;106.18;97.88;;;7.80;1.00;;;;;;5032299;28;20045;-66
2023/04/28 02:09:28;;;;;;;103.15;95.22;;;7.80;1.00;;;;;;5025688;28;20401;-66
2023/04/28 02:11:53;;;;;;;101.63;93.35;;;7.80;1.00;;;;;;5032224;28;20483;-66
2023/04/28 02:14:19;;;;;;;169.38;157.55;;;7.80;1.00;;;;;;5031383;28;20505;-66
2023/04/28 02:16:45;;;;;;;107.53;99.57;;;7.70;1.00;;;;;;5032328;28;20520;-67
2023/04/28 02:19:10;;;;;;;100.43;92.60;;;7.70;1.00;;;;;;5026826;28;20399;-66
2023/04/28 02:21:36;;;;;;;95.85;88.38;;;7.70;1.00;;;;;;5030913;28;20364;-67
2023/04/28 02:24:01;;;;;;;146.63;136.38;;;7.80;1.00;;;;;;5032214;28;20034;-67
2023/04/28 02:26:27;;;;;;;90.70;84.07;;;7.80;1.00;;;;;;5030905;28;20708;-66
2023/04/28 02:28:53;;;;;;;96.82;89.47;;;7.90;1.00;;;;;;5027682;28;20103;-66
2023/04/28 02:31:19;;;;;;;89.03;82.55;;;7.90;1.00;;;;;;5028896;28;20053;-66
2023/04/28 02:33:45;;;;;;;97.20;90.15;;;7.90;1.00;;;;;;5026764;28;20041;-66
2023/04/28 02:36:11;;;;;;;186.77;173.60;;;7.80;1.00;;;;;;5025799;28;20109;-66
2023/04/28 02:38:36;;;;;;;181.73;169.35;;;7.80;1.00;;;;;;5021444;28;20037;-66
2023/04/28 02:41:03;;;;;;;105.10;97.60;;;7.80;1.00;;;;;;5025453;28;20050;-66
2023/04/28 02:43:30;;;;;;;109.90;101.70;;;7.80;1.00;;;;;;5030535;28;20077;-66
2023/04/28 02:45:56;;;;;;;102.72;95.18;;;7.70;1.00;;;;;;5024505;28;20045;-66
2023/04/28 02:48:23;;;;;;;110.05;102.00;;;7.80;1.00;;;;;;5028448;28;20048;-66
2023/04/28 02:50:48;;;;;;;106.80;99.13;;;7.80;1.00;;;;;;5030949;28;20041;-66
2023/04/28 02:53:14;;;;;;;98.38;90.70;;;7.90;1.00;;;;;;5035397;28;20044;-66
2023/04/28 02:55:40;;;;;;;138.18;128.55;;;7.90;1.00;;;;;;5021731;28;20403;-66
2023/04/28 02:58:05;;;;;;;98.75;91.32;;;7.90;1.00;;;;;;5022970;28;20523;-66
2023/04/28 03:00:31;;;;;;;101.25;93.50;;;8.00;1.00;;;;;;5022847;28;20114;-66
2023/04/28 03:02:57;;;;;;;108.10;100.18;;;8.00;1.00;;;;;;5031291;28;20487;-66
2023/04/28 03:05:22;;;;;;;99.95;92.47;;;7.90;1.00;;;;;;5031582;28;20132;-66
2023/04/28 03:07:48;;;;;;;98.47;91.22;;;7.80;1.00;;;;;;5030168;28;20050;-66
2023/04/28 03:10:13;;;;;;;117.50;108.75;;;7.90;1.00;;;;;;5023411;28;20121;-66
2023/04/28 03:12:40;;;;;;;79.32;73.68;;;7.90;1.00;;;;;;5011163;28;20041;-66
2023/04/28 03:15:07;;;;;;;200.73;186.30;;;7.90;1.00;;;;;;5015206;28;20103;-66
2023/04/28 03:17:35;;;;;;;111.85;103.32;;;8.00;1.00;;;;;;5029398;28;20049;-66
2023/04/28 03:20:04;;;;;;;98.93;91.35;;;8.00;1.00;;;;;;5031185;28;20410;-66
2023/04/28 03:22:29;;;;;;;207.30;193.07;;;8.00;1.00;;;;;;5029985;28;20081;-66
2023/04/28 03:24:55;;;;;;;150.48;138.82;;;8.00;1.00;;;;;;5029863;28;20088;-66
2023/04/28 03:27:21;;;;;;;96.07;88.68;;;7.80;1.00;;;;;;5013727;28;20112;-66
2023/04/28 03:29:46;;;;;;;107.00;99.22;;;7.80;1.00;;;;;;5011782;28;20485;-66
2023/04/28 03:32:12;;;;;;;182.52;169.55;;;7.80;1.00;;;;;;5028844;28;20403;-66
2023/04/28 03:34:38;;;;;;;105.10;96.50;;;7.90;1.00;;;;;;5031073;28;20037;-66
2023/04/28 03:37:04;;;;;;;92.25;85.10;;;8.50;1.00;;;;;;5030634;28;20427;-66
2023/04/28 03:39:30;;;;;;;200.25;186.48;;;7.90;1.00;;;;;;5028975;28;20143;-66
2023/04/28 03:41:56;;;;;;;210.70;196.93;;;8.00;1.00;;;;;;5027600;28;20545;-66
2023/04/28 03:44:22;;;;;;;228.20;213.07;;;7.90;1.00;;;;;;5030520;28;20037;-66
2023/04/28 03:46:48;;;;;;;253.45;236.43;;;8.00;1.00;;;;;;5025733;28;20056;-66
2023/04/28 03:49:14;;;;;;;113.65;105.10;;;7.90;1.00;;;;;;5030550;28;20041;-66
2023/04/28 03:51:39;;;;;;;284.80;266.73;;;7.90;99.90;;;;;;5028208;28;20045;-66
2023/04/28 03:54:05;;;;;;;110.55;102.18;;;8.00;99.90;;;;;;5029342;28;20052;-66
2023/04/28 03:56:31;;;;;;;226.30;210.88;;;8.00;99.90;;;;;;5030624;28;20044;-66
2023/04/28 03:58:56;;;;;;;258.75;241.98;;;8.00;99.90;;;;;;5030533;28;20068;-66
2023/04/28 04:01:22;;;;;;;108.00;98.28;;;8.00;99.90;;;;;;5013206;28;20033;-66
2023/04/28 04:03:48;;;;;;;184.00;171.60;;;8.00;99.90;;;;;;5010287;28;20537;-66
2023/04/28 04:06:13;;;;;;;110.43;102.25;;;8.00;99.90;;;;;;5014682;28;20056;-66
2023/04/28 04:08:39;;;;;;;95.10;88.15;;;8.00;99.90;;;;;;5019949;28;20420;-66
2023/04/28 04:11:05;;;;;;;114.13;105.35;;;7.90;99.90;;;;;;5019791;28;20046;-66
2023/04/28 04:13:31;;;;;;;225.38;210.65;;;7.80;99.90;;;;;;5016752;28;20041;-66
2023/04/28 04:15:56;;;;;;;279.67;261.42;;;7.90;99.90;;;;;;5029766;28;20447;-66
2023/04/28 04:18:22;;;;;;;93.88;86.75;;;7.80;99.90;;;;;;5027433;28;20045;-66
2023/04/28 04:20:49;;;;;;;103.35;95.10;;;7.90;99.90;;;;;;5019196;28;20052;-66
2023/04/28 04:23:15;;;;;;;103.68;96.07;;;8.00;99.90;;;;;;5030628;28;20368;-66
2023/04/28 04:25:40;;;;;;;89.82;83.35;;;8.00;99.90;;;;;;5025051;28;20036;-66
2023/04/28 04:28:06;;;;;;;107.47;99.50;;;8.00;99.90;;;;;;5029796;28;20170;-66
2023/04/28 04:30:32;;;;;;;91.45;84.82;;;8.00;99.90;;;;;;5025840;28;20038;-66
2023/04/28 04:32:57;;;;;;;192.25;179.05;;;7.90;99.90;;;;;;5029948;28;20030;-67
2023/04/28 04:35:23;;;;;;;266.98;249.10;;;8.00;99.90;;;;;;5027432;28;20073;-66
2023/04/28 04:37:49;;;;;;;294.42;275.00;;;7.90;99.90;;;;;;5013910;28;20041;-66
2023/04/28 04:40:15;;;;;;;100.03;92.43;;;7.90;99.90;;;;;;5025532;28;20480;-66
2023/04/28 04:42:40;;;;;;;104.38;96.53;;;7.90;99.90;;;;;;5029789;28;20041;-66
2023/04/28 04:45:07;;;;;;;104.30;96.20;;;8.00;99.90;;;;;;5030282;28;20474;-66
2023/04/28 04:47:33;;;;;;;100.88;93.13;;;8.00;99.90;;;;;;5028696;28;20569;-66
2023/04/28 04:49:58;;;;;;;108.28;99.45;;;8.00;99.90;;;;;;5023002;28;20054;-66
2023/04/28 04:52:24;;;;;;;97.30;90.18;;;8.10;99.90;;;;;;5030067;28;20048;-66
2023/04/28 04:54:49;;;;;;;232.93;216.95;;;8.10;99.90;;;;;;5030005;28;20041;-66
2023/04/28 04:57:16;;;;;;;101.97;94.03;;;8.00;99.90;;;;;;5028583;28;20281;-66
2023/04/28 04:59:41;;;;;;;101.55;92.85;;;8.00;99.90;;;;;;5029907;28;20491;-66
2023/04/28 05:02:07;;;;;;;247.75;231.05;;;8.10;99.90;;;;;;5023948;28;20133;-66
2023/04/28 05:04:33;;;;;;;299.15;279.25;;;8.10;99.90;;;;;;5018384;28;20084;-66
2023/04/28 05:06:58;;;;;;;118.72;108.65;;;8.20;99.90;;;;;;5029760;28;20774;-66
2023/04/28 05:09:24;;;;;;;109.72;101.57;;;8.20;99.90;;;;;;5029051;28;20045;-66
2023/04/28 05:11:49;;;;;;;108.25;99.93;;;8.20;99.90;;;;;;5027996;28;20447;-66
2023/04/28 05:14:16;;;;;;;94.53;86.60;;;8.10;99.90;;;;;;5014038;28;20041;-66
2023/04/28 05:16:42;;;;;;;223.82;208.85;;;8.20;99.90;;;;;;5024298;28;20040;-66
2023/04/28 05:19:08;;;;;;;117.68;108.43;;;8.20;99.90;;;;;;5030226;28;20052;-66
2023/04/28 05:21:33;;;;;;;91.03;84.22;;;8.20;99.90;;;;;;5031052;28;20049;-66
2023/04/28 05:23:59;;;;;;;85.25;78.38;;;8.20;99.90;;;;;;5032730;28;20053;-66
2023/04/28 05:26:25;;;;;;;297.73;278.27;;;8.20;99.90;;;;;;5044705;28;20041;-66
2023/04/28 05:28:51;;;;;;;221.15;205.18;;;8.30;99.90;;;;;;5033496;28;20045;-66
2023/04/28 05:31:16;;;;;;;115.47;106.47;;;8.20;99.90;;;;;;5022001;28;20054;-66
2023/04/28 05:33:42;;;;;;;252.52;234.90;;;8.20;99.90;;;;;;5028784;28;20045;-66
2023/04/28 05:36:08;;;;;;;95.07;87.55;;;8.30;99.90;;;;;;5018355;28;20037;-66
2023/04/28 05:38:34;;;;;;;106.50;97.88;;;8.30;99.90;;;;;;5032015;28;20063;-66
2023/04/28 05:41:01;;;;;;;234.18;219.13;;;8.20;99.90;;;;;;5017071;28;20526;-66
2023/04/28 05:43:27;;;;;;;106.75;97.53;;;8.30;1.00;;;;;;5020185;28;20050;-66
2023/04/28 05:45:52;;;;;;;109.50;100.75;;;8.30;1.00;;;;;;5019195;28;20168;-66
2023/04/28 05:48:18;;;;;;;98.38;90.03;;;8.30;1.00;;;;;;5019175;28;20511;-66
2023/04/28 05:50:44;;;;;;;215.38;200.07;;;8.30;1.00;;;;;;5021544;28;20034;-66
2023/04/28 05:53:09;;;;;;;100.78;93.13;;;8.10;1.00;;;;;;5016509;28;20080;-66
2023/04/28 05:55:35;;;;;;;165.20;154.00;;;8.10;1.00;;;;;;5017761;28;20065;-66
2023/04/28 05:58:04;;;;;;;105.90;97.50;;;8.10;1.00;;;;;;5020717;28;20050;-66
2023/04/28 06:00:30;;;;;;;110.47;101.35;;;8.00;1.00;;;;;;5020128;28;20128;-66
2023/04/28 06:02:56;;;;;;;101.57;93.63;;;8.10;1.00;;;;;;5023268;28;20041;-66
2023/04/28 06:05:22;;;;;;;109.63;101.38;;;8.20;1.00;;;;;;5018545;28;20045;-66
2023/04/28 06:07:47;;;;;;;99.25;91.38;;;8.30;1.00;;;;;;5031775;28;20095;-66
2023/04/28 06:10:13;;;;;;;186.90;174.00;;;8.30;1.00;;;;;;5032257;28;20045;-66
2023/04/28 06:12:38;;;;;;;209.88;195.15;;;8.20;1.00;;;;;;5020959;28;20041;-66
2023/04/28 06:15:05;;;;;;;185.95;172.82;;;8.30;1.00;;;;;;5022239;28;20069;-66
2023/04/28 06:17:32;;;;;;;107.95;99.38;;;8.20;1.00;;;;;;5028862;28;20500;-66
2023/04/28 06:19:58;;;;;;;187.35;174.02;;;8.20;1.00;;;;;;5029540;28;20270;-66
2023/04/28 06:22:24;;;;;;;197.80;184.60;;;8.40;1.00;;;;;;5024765;28;20053;-66
2023/04/28 06:24:50;;;;;;;95.95;87.40;;;8.30;1.00;;;;;;5029931;28;20045;-66
2023/04/28 06:27:16;;;;;;;177.65;165.02;;;8.30;1.00;;;;;;5026658;28;20457;-66
2023/04/28 06:29:43;;;;;;;108.43;99.35;;;8.30;1.00;;;;;;5026005;28;20072;-66
2023/04/28 06:32:09;;;;;;;199.07;185.13;;;8.30;1.00;;;;;;5014780;28;20070;-66
2023/04/28 06:34:34;;;;;;;106.45;98.07;;;8.30;1.00;;;;;;5024166;28;20081;-66
2023/04/28 06:37:00;;;;;;;106.07;97.50;;;8.20;1.00;;;;;;5021278;28;20034;-66
2023/04/28 06:39:26;;;;;;;187.10;173.13;;;8.30;1.00;;;;;;5016737;28;20077;-65
2023/04/28 06:41:52;;;;;;;107.63;99.55;;;8.40;1.00;;;;;;5016065;28;20403;-65
2023/04/28 06:44:18;;;;;;;153.93;142.50;;;8.30;1.00;;;;;;5017659;28;20034;-65
2023/04/28 06:46:44;;;;;;;120.68;111.28;;;8.40;1.00;;;;;;5019750;28;20095;-66
2023/04/28 06:49:10;;;;;;;210.35;195.40;;;8.40;1.00;;;;;;5018157;28;20037;-66
2023/04/28 06:51:35;;;;;;;304.55;284.88;;;8.40;1.00;;;;;;5018948;28;20381;-65
2023/04/28 06:54:01;;;;;;;107.50;98.85;;;8.40;1.00;;;;;;5023177;28;20112;-66
2023/04/28 06:56:26;;;;;;;230.75;215.32;;;8.40;1.00;;;;;;5029371;28;20451;-65
2023/04/28 06:58:54;;;;;;;133.20;122.35;;;8.30;1.00;;;;;;5024623;28;20120;-65
2023/04/28 07:01:20;;;;;;;100.00;91.03;;;8.30;1.00;;;;;;5024620;28;20049;-66
2023/04/28 07:03:45;;;;;;;108.00;99.30;;;8.30;1.00;;;;;;5016574;28;20053;-66
2023/04/28 07:06:11;;;;;;;203.88;189.63;;;8.20;1.00;;;;;;5017530;28;20684;-65
2023/04/28 07:08:37;;;;;;;180.93;168.23;;;8.20;1.00;;;;;;5022084;28;20120;-65
2023/04/28 07:11:03;;;;;;;92.63;85.00;;;8.10;30.70;;;;;;5017236;28;20049;-65
2023/04/28 07:13:29;;;;;;;99.30;90.82;;;8.10;62.60;;;;;;5017678;28;20494;-66
2023/04/28 07:15:55;;;;;;;199.40;185.68;;;8.10;99.50;;;;;;5018475;28;20037;-65
2023/04/28 07:18:21;;;;;;;93.57;85.85;;;8.10;99.90;;;;;;5016715;28;20049;-66
2023/04/28 07:20:47;;;;;;;90.40;82.82;;;8.10;99.90;;;;;;5017602;28;20064;-65
2023/04/28 07:23:13;;;;;;;134.18;124.50;;;8.20;99.90;;;;;;5017493;28;20034;-65
2023/04/28 07:25:40;;;;;;;84.88;78.03;;;8.20;99.90;;;;;;5011877;28;20046;-65
2023/04/28 07:28:05;;;;;;;96.57;88.72;;;8.20;99.90;;;;;;5018813;28;21763;-65
2023/04/28 07:30:31;;;;;;;108.30;99.93;;;8.30;99.90;;;;;;5024542;28;20037;-66
2023/04/28 07:32:57;;;;;;;124.85;115.65;;;8.30;99.90;;;;;;5024111;28;20026;-68
2023/04/28 07:35:23;;;;;;;112.65;104.05;;;8.20;99.90;;;;;;5017802;28;20049;-67
2023/04/28 07:37:49;;;;;;;66.43;60.53;;;8.20;99.90;;;;;;5019571;28;20045;-67
2023/04/28 07:40:15;;;;;;;123.22;114.20;;;8.20;99.90;;;;;;5023545;28;20498;-67
2023/04/28 07:42:41;;;;;;;74.28;68.18;;;8.30;1.00;;;;;;5025585;28;20034;-67
2023/04/28 07:45:07;;;;;;;157.15;145.88;;;8.40;1.00;;;;;;5009211;28;20052;-67
2023/04/28 07:47:33;;;;;;;77.10;70.25;;;8.40;1.00;;;;;;5017142;28;20050;-67
2023/04/28 07:50:02;;;;;;;101.28;91.97;;;8.40;1.00;;;;;;5018209;28;20034;-67
2023/04/28 07:52:27;;;;;;;173.40;161.05;;;8.40;1.00;;;;;;5014980;28;20512;-67
2023/04/28 07:54:53;;;;;;;135.35;125.40;;;8.40;1.00;;;;;;5017631;28;20121;-68
2023/04/28 07:57:19;;;;;;;196.88;183.45;;;8.30;1.00;;;;;;5030839;28;20046;-67
2023/04/28 07:59:44;;;;;;;156.52;145.63;;;8.20;1.00;;;;;;5019036;28;20041;-68
2023/04/28 08:02:12;;;;;;;138.35;126.75;;;8.40;1.00;;;;;;5016442;28;20044;-67
2023/04/28 08:04:38;;;;;;;77.95;71.35;;;8.50;1.00;;;;;;5019895;28;20080;-68
2023/04/28 08:07:04;;;;;;;236.25;220.57;;;8.60;1.00;;;;;;5018769;28;20038;-67
2023/04/28 08:09:29;;;;;;;179.77;167.77;;;8.70;1.00;;;;;;5022457;28;20048;-68
2023/04/28 08:11:55;;;;;;;201.82;187.93;;;8.80;1.00;;;;;;5023293;28;20125;-68
2023/04/28 08:14:21;;;;;;;68.63;62.78;;;8.80;1.00;;;;;;5019801;28;20029;-68
2023/04/28 08:16:47;;;;;;;271.88;254.48;;;8.60;1.00;;;;;;5021686;28;20033;-68
2023/04/28 08:19:13;;;;;;;217.75;202.40;;;8.70;1.00;;;;;;5014672;28;20052;-68
2023/04/28 08:21:38;;;;;;;149.82;139.32;;;8.80;1.00;;;;;;5012658;28;20091;-68
2023/04/28 08:24:04;;;;;;;248.18;231.50;;;8.80;1.00;;;;;;5023452;28;20044;-67
2023/04/28 08:26:31;;;;;;;220.95;206.38;;;8.80;1.00;;;;;;5018050;28;20104;-67
2023/04/28 08:28:56;;;;;;;323.55;302.95;;;8.90;1.00;;;;;;5017117;28;20091;-67
2023/04/28 08:31:22;;;;;;;254.98;237.82;;;8.90;1.00;;;;;;5018143;28;20037;-67
2023/04/28 08:33:50;;;;;;;239.20;223.65;;;9.00;1.00;;;;;;5026273;28;20046;-67
2023/04/28 08:36:16;;;;;;;302.67;282.77;;;9.10;1.00;;;;;;5016684;28;20041;-67
2023/04/28 08:38:43;;;;;;;142.73;132.80;;;9.00;1.00;;;;;;5020864;28;20507;-67
2023/04/28 08:41:11;;;;;;;202.30;188.52;;;9.10;1.00;;;;;;5028800;28;20176;-67
2023/04/28 08:43:39;;;;;;;265.60;247.52;;;9.30;1.00;;;;;;5025797;28;20407;-67
2023/04/28 08:46:07;;;;;;;152.57;141.25;;;10.00;1.00;;;;;;5016954;28;20045;-67
2023/04/28 08:48:40;;;;;;;335.48;314.17;;;9.40;1.00;;;;;;5030392;28;20042;-67
2023/04/28 08:51:07;;;;;;;290.65;269.63;;;9.40;1.00;;;;;;5024846;28;20038;-67
2023/04/28 08:53:36;;;;;;;307.50;287.35;;;9.30;99.90;;;;;;5018984;28;20428;-67
2023/04/28 08:56:05;;;;;;;191.05;177.45;;;9.40;99.90;;;;;;5021918;28;20049;-67
2023/04/28 08:58:31;;;;;;;173.32;160.40;;;9.40;99.90;;;;;;5027665;28;20054;-67
2023/04/28 09:00:57;;;;;;;219.18;204.70;;;9.60;99.90;;;;;;5014126;28;20042;-67
2023/04/28 09:03:22;;;;;;;187.38;174.23;;;10.30;1.00;;;;;;5020504;28;20694;-67
2023/04/28 09:05:48;;;;;;;152.45;141.43;;;10.00;1.00;;;;;;5020866;28;20484;-67
2023/04/28 09:08:14;;;;;;;274.13;255.15;;;10.20;1.00;;;;;;5025751;28;20033;-67
2023/04/28 09:10:40;;;;;;;250.60;234.27;;;10.20;99.90;;;;;;5024284;28;20043;-68
2023/04/28 09:13:06;;;;;;;132.43;120.65;;;10.30;99.90;;;;;;5024271;28;20112;-68
2023/04/28 09:15:40;;;;;;;78.68;70.80;;;10.30;99.90;;;;;;5021678;28;20112;-67
2023/04/28 09:18:06;;;;;;;126.10;115.68;;;10.20;99.90;;;;;;5026639;28;20337;-68
2023/04/28 09:20:34;;;;;;;320.00;299.42;;;10.10;99.90;;;;;;5027177;28;20689;-67
2023/04/28 09:23:13;;;;;;;160.05;147.40;;;10.10;99.90;;;;;;5023090;28;20053;-67
2023/04/28 09:25:38;;;;;;;152.05;140.65;;;10.10;99.90;;;;;;5006950;28;20127;-66
2023/04/28 09:28:20;;;;;;;169.50;157.45;;;10.20;99.90;;;;;;5027679;28;20132;-67
2023/04/28 09:30:46;;;;;;;122.90;111.25;;;10.00;99.90;;;;;;5016766;28;20045;-67
2023/04/28 09:33:12;;;;;;;96.82;88.65;;;10.00;99.90;;;;;;5016279;28;20030;-67
2023/04/28 09:35:39;;;;;;;144.68;133.40;;;10.00;99.90;;;;;;5002305;28;20403;-67
2023/04/28 09:38:05;;;;;;;102.97;94.70;;;10.00;1.00;;;;;;5017514;28;20056;-67
2023/04/28 09:40:31;;;;;;;221.10;205.43;;;9.90;1.00;;;;;;5012309;28;20042;-67
2023/04/28 09:42:56;;;;;;;120.13;109.70;;;10.00;17.50;;;;;;5015795;28;20060;-68
2023/04/28 09:45:23;;;;;;;154.23;142.43;;;10.10;98.20;;;;;;5028776;28;20049;-67
2023/04/28 09:47:49;;;;;;;186.40;171.63;;;10.10;99.90;;;;;;5024890;28;20542;-68
2023/04/28 09:50:16;;;;;;;179.85;165.75;;;10.10;99.90;;;;;;5024485;28;20042;-67
2023/04/28 09:52:55;;;;;;;190.32;177.00;;;10.40;99.90;;;;;;5019031;28;20038;-67
2023/04/28 09:55:22;;;;;;;258.92;241.50;;;10.10;99.90;;;;;;5012741;28;20514;-67
2023/04/28 09:57:51;;;;;;;131.10;120.55;;;10.10;99.90;;;;;;5022239;28;20057;-68
2023/04/28 10:00:19;;;;;;;164.35;151.98;;;10.10;99.90;;;;;;5015856;28;20048;-67
2023/04/28 10:02:44;;;;;;;151.55;141.25;;;10.10;1.00;;;;;;5019935;28;20620;-67
2023/04/28 10:05:11;;;;;;;138.45;128.15;;;10.20;1.00;;;;;;5012659;28;20120;-67
2023/04/28 10:07:37;;;;;;;136.90;126.97;;;10.30;1.00;;;;;;5026374;28;20515;-67
2023/04/28 10:10:04;;;;;;;163.57;151.57;;;10.30;1.00;;;;;;5026909;28;20035;-67
2023/04/28 10:12:31;;;;;;;138.05;127.35;;;10.40;1.00;;;;;;5017965;28;20649;-67
2023/04/28 10:14:57;;;;;;;215.30;200.30;;;10.40;1.00;;;;;;5014373;28;20029;-67
2023/04/28 10:17:27;;;;;;;167.18;155.55;;;10.40;1.00;;;;;;5027175;28;20103;-67
2023/04/28 10:19:53;;;;;;;174.30;162.00;;;10.40;1.00;;;;;;5013240;28;20049;-67
2023/04/28 10:22:44;;;;;;;192.48;179.13;;;10.40;1.00;;;;;;5018180;28;20033;-67
2023/04/28 10:25:23;;;;;;;183.07;169.52;;;10.50;1.00;;;;;;5011862;28;20111;-67
2023/04/28 10:27:49;;;;;;;202.35;188.48;;;10.50;1.00;;;;;;5022603;28;20458;-67
2023/04/28 10:30:20;;;;;;;125.95;116.63;;;10.60;1.00;;;;;;5027260;28;20439;-67
2023/04/28 10:32:47;;;;;;;123.53;113.95;;;10.60;1.00;;;;;;5016141;28;20053;-67
2023/04/28 10:35:31;;;;;;;152.68;141.20;;;10.60;1.00;;;;;;5026727;28;20029;-67
2023/04/28 10:38:04;;;;;;;152.82;141.70;;;10.70;1.00;;;;;;5018306;28;20547;-67
2023/04/28 10:40:34;;;;;;;148.20;136.10;;;10.80;1.00;;;;;;5018651;28;20041;-67
2023/04/28 10:43:00;;;;;;;108.07;99.60;;;10.80;1.00;;;;;;5010964;28;20059;-68
2023/04/28 10:45:48;;;;;;;60.85;55.70;;;10.90;15.00;;;;;;5014220;28;20041;-67
2023/04/28 10:48:15;;;;;;;84.95;77.55;;;10.90;72.20;;;;;;5014729;28;20046;-68
2023/04/28 10:51:02;;;;;;;95.45;88.35;;;10.90;89.50;;;;;;5015127;28;20037;-67
2023/04/28 10:53:50;;;;;;;123.90;113.93;;;10.90;99.90;;;;;;5016909;28;20041;-67
2023/04/28 10:56:18;;;;;;;57.15;51.67;;;10.90;99.90;;;;;;5022523;28;20033;-66
2023/04/28 10:58:49;;;;;;;108.93;98.15;;;10.90;99.90;;;;;;5013510;28;20107;-66
2023/04/28 11:01:20;;;;;;;128.38;119.00;;;10.90;99.90;;;;;;5018960;28;20128;-66
2023/04/28 11:06:33;;;;;;;111.22;101.00;;;10.90;1.00;;;;;;5019983;28;20147;-66
2023/04/28 11:09:06;;;;;;;85.18;77.25;;;11.00;67.90;;;;;;5027502;28;20038;-66
2023/04/28 11:11:33;;;;;;;131.77;109.05;;;10.90;99.90;;;;;;5015652;28;20529;-66
2023/04/28 11:14:17;;;;;;;111.75;84.50;;;10.90;99.90;;;;;;5011554;28;20048;-67
2023/04/28 11:16:52;;;;;;;119.80;107.93;;;11.00;1.00;;;;;;5017180;28;20097;-66
2023/04/28 11:19:20;;;;;;;116.50;91.55;;;11.30;99.90;;;;;;5015678;28;20041;-67
2023/04/28 11:21:47;;;;;;;119.35;103.80;;;11.50;1.60;;;;;;5015909;28;20034;-66
2023/04/28 11:24:12;;;;;;;90.47;74.65;;;11.50;99.90;;;;;;5028627;28;20456;-66
2023/04/28 11:26:39;;;;;;;106.25;95.03;;;11.50;99.90;;;;;;5023907;28;20069;-66
2023/04/28 11:29:04;;;;;;;128.15;106.93;;;11.50;1.00;;;;;;5036298;28;20096;-66
2023/04/28 11:31:30;;;;;;;104.10;91.00;;;12.70;1.00;;;;;;5013153;28;20652;-67
2023/04/28 11:33:59;;;;;;;93.93;67.95;;;11.30;99.90;;;;;;5018931;28;20045;-66
2023/04/28 11:36:36;;;;;;;93.60;80.93;;;11.20;99.90;;;;;;5016727;28;20037;-66
2023/04/28 11:39:03;;;;;;;53.90;48.40;;;11.10;1.00;;;;;;5015525;28;20080;-66
2023/04/28 11:41:30;;;;;;;141.13;113.07;;;11.20;99.90;;;;;;5017642;28;20087;-66
2023/04/28 11:43:56;;;;;;;67.28;55.60;;;11.40;1.00;;;;;;5007661;28;20434;-66
2023/04/28 11:46:24;;;;;;;110.22;95.15;;;11.40;99.90;;;;;;5015085;28;20056;-66
2023/04/28 11:49:00;;;;;;;131.73;101.80;;;11.50;99.90;;;;;;5013940;28;20049;-66
2023/04/28 11:51:33;;;;;;;100.53;89.22;;;10.20;1.00;;;;;;5020117;28;20033;-66
2023/04/28 11:54:00;;;;;;;109.45;96.38;;;11.40;99.90;;;;;;5025513;28;20037;-66
2023/04/28 11:56:26;;;;;;;139.30;116.88;;;11.30;99.90;;;;;;5008098;28;20073;-66
2023/04/28 11:59:00;;;;;;;110.20;96.60;;;11.40;1.00;;;;;;5026261;28;20041;-66
2023/04/28 12:01:26;;;;;;;121.05;86.15;;;11.50;99.90;;;;;;5013755;28;20069;-66
2023/04/28 12:03:51;;;;;;;88.97;79.03;;;11.50;1.00;;;;;;5013607;28;20041;-66
2023/04/28 12:06:17;;;;;;;99.82;83.57;;;11.50;1.00;;;;;;4996591;28;20037;-66
2023/04/28 12:08:43;;;;;;;91.70;80.78;;;11.50;99.90;;;;;;5011656;28;20037;-64
2023/04/28 12:11:11;;;;;;;135.85;109.10;;;11.50;99.90;;;;;;5017340;28;20052;-65
2023/04/28 12:13:38;;;;;;;95.90;85.45;;;11.40;99.90;;;;;;5012637;28;20519;-65
2023/04/28 12:16:05;;;;;;;105.93;95.30;;;11.40;99.90;;;;;;5010788;28;20115;-65
2023/04/28 12:18:35;;;;;;;53.92;48.33;;;11.40;99.90;;;;;;5015065;28;20050;-66
2023/04/28 12:21:01;;;;;;;77.32;69.57;;;11.40;99.90;;;;;;5013816;28;20095;-65
2023/04/28 12:23:35;;;;;;;117.70;105.30;;;11.40;99.90;;;;;;5010114;28;20048;-68
2023/04/28 12:26:01;;;;;;;75.72;68.35;;;11.40;99.90;;;;;;5021646;28;20041;-67
2023/04/28 12:28:37;;;;;;;85.53;74.78;;;11.60;99.90;;;;;;5021348;28;20058;-67